sensor_id;sensor_type;location;lat;lon;timestamp;P1;durP1;ratioP1;P2;durP2;ratioP2
2480;SDS011;57396;48.742;9.128;2023-12-20T00:01:18;2.60;;;1.63;;
2480;SDS011;57396;48.742;9.128;2023-12-20T00:03:43;1.80;;;1.50;;
2480;SDS011;57396;48.742;9.128;2023-12-20T00:06:09;1.93;;;1.50;;
2480;SDS011;57396;48.742;9.128;2023-12-20T00:08:35;1.73;;;1.63;;
2480;SDS011;57396;48.742;9.128;2023-12-20T00:11:00;2.37;;;1.70;;
2480;SDS011;57396;48.742;9.128;2023-12-20T00:13:26;1.90;;;1.80;;
2480;SDS011;57396;48.742;9.128;2023-12-20T00:15:51;1.80;;;1.70;;
2480;SDS011;57396;48.742;9.128;2023-12-20T00:18:16;1.80;;;1.60;;
2480;SDS011;57396;48.742;9.128;2023-12-20T00:20:42;5.33;;;1.70;;
2480;SDS011;57396;48.742;9.128;2023-12-20T00:23:07;1.77;;;1.67;;
2480;SDS011;57396;48.742;9.128;2023-12-20T00:25:33;2.40;;;1.93;;
2480;SDS011;57396;48.742;9.128;2023-12-20T00:28:00;3.20;;;2.00;;
2480;SDS011;57396;48.742;9.128;2023-12-20T00:30:25;1.57;;;1.47;;
2480;SDS011;57396;48.742;9.128;2023-12-20T00:32:50;2.00;;;1.80;;
2480;SDS011;57396;48.742;9.128;2023-12-20T00:35:16;1.57;;;1.40;;
2480;SDS011;57396;48.742;9.128;2023-12-20T00:37:45;1.50;;;1.40;;
2480;SDS011;57396;48.742;9.128;2023-12-20T00:40:10;2.13;;;1.27;;
2480;SDS011;57396;48.742;9.128;2023-12-20T00:42:36;1.53;;;1.30;;
2480;SDS011;57396;48.742;9.128;2023-12-20T00:45:02;2.50;;;1.50;;
2480;SDS011;57396;48.742;9.128;2023-12-20T00:47:29;2.20;;;1.20;;
2480;SDS011;57396;48.742;9.128;2023-12-20T00:49:55;1.73;;;1.30;;
2480;SDS011;57396;48.742;9.128;2023-12-20T00:52:21;1.50;;;1.27;;
2480;SDS011;57396;48.742;9.128;2023-12-20T00:54:47;1.50;;;1.40;;
2480;SDS011;57396;48.742;9.128;2023-12-20T00:57:13;1.67;;;1.00;;
2480;SDS011;57396;48.742;9.128;2023-12-20T00:59:38;1.70;;;1.20;;
2480;SDS011;57396;48.742;9.128;2023-12-20T01:02:04;1.30;;;1.20;;
2480;SDS011;57396;48.742;9.128;2023-12-20T01:04:29;1.47;;;1.20;;
2480;SDS011;57396;48.742;9.128;2023-12-20T01:06:55;1.80;;;1.17;;
2480;SDS011;57396;48.742;9.128;2023-12-20T01:09:20;1.40;;;1.20;;
2480;SDS011;57396;48.742;9.128;2023-12-20T01:11:48;1.40;;;1.30;;
2480;SDS011;57396;48.742;9.128;2023-12-20T01:14:14;2.20;;;1.50;;
2480;SDS011;57396;48.742;9.128;2023-12-20T01:16:39;1.23;;;1.13;;
2480;SDS011;57396;48.742;9.128;2023-12-20T01:19:05;1.87;;;1.60;;
2480;SDS011;57396;48.742;9.128;2023-12-20T01:21:30;1.70;;;1.30;;
2480;SDS011;57396;48.742;9.128;2023-12-20T01:23:57;1.30;;;1.20;;
2480;SDS011;57396;48.742;9.128;2023-12-20T01:26:22;1.30;;;1.10;;
2480;SDS011;57396;48.742;9.128;2023-12-20T01:28:48;2.30;;;1.03;;
2480;SDS011;57396;48.742;9.128;2023-12-20T01:31:13;1.30;;;1.20;;
2480;SDS011;57396;48.742;9.128;2023-12-20T01:33:38;1.30;;;1.20;;
2480;SDS011;57396;48.742;9.128;2023-12-20T01:36:04;1.20;;;1.00;;
2480;SDS011;57396;48.742;9.128;2023-12-20T01:38:29;1.60;;;1.03;;
2480;SDS011;57396;48.742;9.128;2023-12-20T01:40:55;1.53;;;1.10;;
2480;SDS011;57396;48.742;9.128;2023-12-20T01:43:20;1.57;;;1.33;;
2480;SDS011;57396;48.742;9.128;2023-12-20T01:45:46;1.40;;;1.03;;
2480;SDS011;57396;48.742;9.128;2023-12-20T01:48:12;2.13;;;1.00;;
2480;SDS011;57396;48.742;9.128;2023-12-20T01:50:38;1.30;;;1.20;;
2480;SDS011;57396;48.742;9.128;2023-12-20T01:53:05;2.30;;;1.40;;
2480;SDS011;57396;48.742;9.128;2023-12-20T01:55:33;1.17;;;1.07;;
2480;SDS011;57396;48.742;9.128;2023-12-20T01:58:00;2.60;;;1.37;;
2480;SDS011;57396;48.742;9.128;2023-12-20T02:00:26;1.30;;;1.17;;
2480;SDS011;57396;48.742;9.128;2023-12-20T02:02:52;3.43;;;1.10;;
2480;SDS011;57396;48.742;9.128;2023-12-20T02:05:18;2.50;;;1.20;;
2480;SDS011;57396;48.742;9.128;2023-12-20T02:07:44;1.30;;;0.97;;
2480;SDS011;57396;48.742;9.128;2023-12-20T02:10:09;1.67;;;1.10;;
2480;SDS011;57396;48.742;9.128;2023-12-20T02:12:35;1.10;;;1.00;;
2480;SDS011;57396;48.742;9.128;2023-12-20T02:15:00;1.30;;;0.80;;
2480;SDS011;57396;48.742;9.128;2023-12-20T02:17:26;3.00;;;1.10;;
2480;SDS011;57396;48.742;9.128;2023-12-20T02:19:52;0.90;;;0.73;;
2480;SDS011;57396;48.742;9.128;2023-12-20T02:22:18;0.90;;;0.70;;
2480;SDS011;57396;48.742;9.128;2023-12-20T02:24:43;1.60;;;1.00;;
2480;SDS011;57396;48.742;9.128;2023-12-20T02:27:08;1.00;;;0.80;;
2480;SDS011;57396;48.742;9.128;2023-12-20T02:29:34;1.23;;;0.97;;
2480;SDS011;57396;48.742;9.128;2023-12-20T02:32:00;1.30;;;0.90;;
2480;SDS011;57396;48.742;9.128;2023-12-20T02:34:26;1.60;;;0.70;;
2480;SDS011;57396;48.742;9.128;2023-12-20T02:36:51;1.30;;;0.90;;
2480;SDS011;57396;48.742;9.128;2023-12-20T02:39:17;0.90;;;0.73;;
2480;SDS011;57396;48.742;9.128;2023-12-20T02:41:43;4.20;;;1.03;;
2480;SDS011;57396;48.742;9.128;2023-12-20T02:44:09;1.10;;;1.00;;
2480;SDS011;57396;48.742;9.128;2023-12-20T02:46:34;3.37;;;0.93;;
2480;SDS011;57396;48.742;9.128;2023-12-20T02:49:00;2.00;;;0.80;;
2480;SDS011;57396;48.742;9.128;2023-12-20T02:51:25;0.90;;;0.80;;
2480;SDS011;57396;48.742;9.128;2023-12-20T02:53:51;1.37;;;0.93;;
2480;SDS011;57396;48.742;9.128;2023-12-20T02:56:16;1.70;;;1.40;;
2480;SDS011;57396;48.742;9.128;2023-12-20T02:58:41;1.83;;;1.63;;
2480;SDS011;57396;48.742;9.128;2023-12-20T03:01:07;4.50;;;1.77;;
2480;SDS011;57396;48.742;9.128;2023-12-20T03:03:32;5.90;;;1.63;;
2480;SDS011;57396;48.742;9.128;2023-12-20T03:05:58;2.40;;;1.23;;
2480;SDS011;57396;48.742;9.128;2023-12-20T03:08:24;2.07;;;1.13;;
2480;SDS011;57396;48.742;9.128;2023-12-20T03:10:50;1.20;;;1.10;;
2480;SDS011;57396;48.742;9.128;2023-12-20T03:13:15;1.50;;;1.20;;
2480;SDS011;57396;48.742;9.128;2023-12-20T03:15:40;1.00;;;0.90;;
2480;SDS011;57396;48.742;9.128;2023-12-20T03:18:06;2.00;;;1.27;;
2480;SDS011;57396;48.742;9.128;2023-12-20T03:20:31;1.50;;;1.20;;
2480;SDS011;57396;48.742;9.128;2023-12-20T03:23:02;1.70;;;1.33;;
2480;SDS011;57396;48.742;9.128;2023-12-20T03:25:28;1.43;;;1.17;;
2480;SDS011;57396;48.742;9.128;2023-12-20T03:27:53;1.43;;;1.33;;
2480;SDS011;57396;48.742;9.128;2023-12-20T03:30:19;1.93;;;1.50;;
2480;SDS011;57396;48.742;9.128;2023-12-20T03:32:44;1.73;;;0.90;;
2480;SDS011;57396;48.742;9.128;2023-12-20T03:35:10;1.63;;;1.00;;
2480;SDS011;57396;48.742;9.128;2023-12-20T03:37:35;0.90;;;0.80;;
2480;SDS011;57396;48.742;9.128;2023-12-20T03:40:01;2.10;;;1.00;;
2480;SDS011;57396;48.742;9.128;2023-12-20T03:42:27;1.30;;;0.87;;
2480;SDS011;57396;48.742;9.128;2023-12-20T03:44:52;0.80;;;0.50;;
2480;SDS011;57396;48.742;9.128;2023-12-20T03:47:18;3.13;;;0.70;;
2480;SDS011;57396;48.742;9.128;2023-12-20T03:49:43;3.20;;;0.60;;
2480;SDS011;57396;48.742;9.128;2023-12-20T03:52:09;1.83;;;0.70;;
2480;SDS011;57396;48.742;9.128;2023-12-20T03:54:37;1.30;;;0.50;;
2480;SDS011;57396;48.742;9.128;2023-12-20T03:57:03;1.07;;;0.60;;
2480;SDS011;57396;48.742;9.128;2023-12-20T03:59:29;0.70;;;0.50;;
2480;SDS011;57396;48.742;9.128;2023-12-20T04:01:55;0.80;;;0.50;;
2480;SDS011;57396;48.742;9.128;2023-12-20T04:04:20;4.60;;;0.60;;
2480;SDS011;57396;48.742;9.128;2023-12-20T04:06:46;0.80;;;0.50;;
2480;SDS011;57396;48.742;9.128;2023-12-20T04:09:11;1.73;;;0.50;;
2480;SDS011;57396;48.742;9.128;2023-12-20T04:11:37;0.80;;;0.50;;
2480;SDS011;57396;48.742;9.128;2023-12-20T04:14:02;0.80;;;0.40;;
2480;SDS011;57396;48.742;9.128;2023-12-20T04:16:30;0.80;;;0.53;;
2480;SDS011;57396;48.742;9.128;2023-12-20T04:18:55;1.20;;;0.50;;
2480;SDS011;57396;48.742;9.128;2023-12-20T04:21:21;0.70;;;0.40;;
2480;SDS011;57396;48.742;9.128;2023-12-20T04:23:46;0.80;;;0.50;;
2480;SDS011;57396;48.742;9.128;2023-12-20T04:26:11;0.80;;;0.50;;
2480;SDS011;57396;48.742;9.128;2023-12-20T04:28:37;0.80;;;0.57;;
2480;SDS011;57396;48.742;9.128;2023-12-20T04:31:02;0.80;;;0.50;;
2480;SDS011;57396;48.742;9.128;2023-12-20T04:33:28;0.80;;;0.50;;
2480;SDS011;57396;48.742;9.128;2023-12-20T04:35:53;0.90;;;0.50;;
2480;SDS011;57396;48.742;9.128;2023-12-20T04:38:19;0.90;;;0.50;;
2480;SDS011;57396;48.742;9.128;2023-12-20T04:40:44;2.00;;;0.47;;
2480;SDS011;57396;48.742;9.128;2023-12-20T04:43:10;1.23;;;0.53;;
2480;SDS011;57396;48.742;9.128;2023-12-20T04:45:35;0.90;;;0.50;;
2480;SDS011;57396;48.742;9.128;2023-12-20T04:48:01;0.80;;;0.50;;
2480;SDS011;57396;48.742;9.128;2023-12-20T04:50:27;2.23;;;0.60;;
2480;SDS011;57396;48.742;9.128;2023-12-20T04:52:52;0.90;;;0.50;;
2480;SDS011;57396;48.742;9.128;2023-12-20T04:55:18;0.80;;;0.50;;
2480;SDS011;57396;48.742;9.128;2023-12-20T04:57:43;1.50;;;0.53;;
2480;SDS011;57396;48.742;9.128;2023-12-20T05:00:09;9.97;;;0.70;;
2480;SDS011;57396;48.742;9.128;2023-12-20T05:02:35;1.00;;;0.70;;
2480;SDS011;57396;48.742;9.128;2023-12-20T05:05:01;1.10;;;1.00;;
2480;SDS011;57396;48.742;9.128;2023-12-20T05:07:26;0.90;;;0.70;;
2480;SDS011;57396;48.742;9.128;2023-12-20T05:09:52;2.17;;;0.80;;
2480;SDS011;57396;48.742;9.128;2023-12-20T05:12:17;0.80;;;0.60;;
2480;SDS011;57396;48.742;9.128;2023-12-20T05:14:43;0.90;;;0.60;;
2480;SDS011;57396;48.742;9.128;2023-12-20T05:17:08;1.53;;;0.70;;
2480;SDS011;57396;48.742;9.128;2023-12-20T05:19:33;0.90;;;0.60;;
2480;SDS011;57396;48.742;9.128;2023-12-20T05:22:01;1.47;;;0.60;;
2480;SDS011;57396;48.742;9.128;2023-12-20T05:24:27;1.20;;;0.90;;
2480;SDS011;57396;48.742;9.128;2023-12-20T05:26:53;1.40;;;1.10;;
2480;SDS011;57396;48.742;9.128;2023-12-20T05:29:18;1.67;;;1.07;;
2480;SDS011;57396;48.742;9.128;2023-12-20T05:31:43;1.50;;;0.63;;
2480;SDS011;57396;48.742;9.128;2023-12-20T05:34:09;1.97;;;0.70;;
2480;SDS011;57396;48.742;9.128;2023-12-20T05:36:34;1.13;;;0.53;;
2480;SDS011;57396;48.742;9.128;2023-12-20T05:39:00;3.17;;;0.70;;
2480;SDS011;57396;48.742;9.128;2023-12-20T05:41:26;1.07;;;0.70;;
2480;SDS011;57396;48.742;9.128;2023-12-20T05:43:51;1.27;;;0.87;;
2480;SDS011;57396;48.742;9.128;2023-12-20T05:46:16;3.60;;;1.43;;
2480;SDS011;57396;48.742;9.128;2023-12-20T05:48:42;1.60;;;0.97;;
2480;SDS011;57396;48.742;9.128;2023-12-20T05:51:07;4.80;;;1.00;;
2480;SDS011;57396;48.742;9.128;2023-12-20T05:53:36;1.90;;;0.60;;
2480;SDS011;57396;48.742;9.128;2023-12-20T05:56:02;1.20;;;0.80;;
2480;SDS011;57396;48.742;9.128;2023-12-20T05:58:27;1.00;;;0.60;;
2480;SDS011;57396;48.742;9.128;2023-12-20T06:00:54;1.10;;;0.70;;
2480;SDS011;57396;48.742;9.128;2023-12-20T06:03:19;1.50;;;0.70;;
2480;SDS011;57396;48.742;9.128;2023-12-20T06:05:45;1.23;;;1.13;;
2480;SDS011;57396;48.742;9.128;2023-12-20T06:08:10;1.10;;;0.90;;
2480;SDS011;57396;48.742;9.128;2023-12-20T06:10:36;3.20;;;1.00;;
2480;SDS011;57396;48.742;9.128;2023-12-20T06:13:01;4.10;;;1.03;;
2480;SDS011;57396;48.742;9.128;2023-12-20T06:15:26;3.17;;;0.90;;
2480;SDS011;57396;48.742;9.128;2023-12-20T06:17:52;4.03;;;0.93;;
2480;SDS011;57396;48.742;9.128;2023-12-20T06:20:17;1.00;;;0.70;;
2480;SDS011;57396;48.742;9.128;2023-12-20T06:22:43;5.30;;;0.80;;
2480;SDS011;57396;48.742;9.128;2023-12-20T06:25:08;1.10;;;1.00;;
2480;SDS011;57396;48.742;9.128;2023-12-20T06:27:34;2.63;;;1.10;;
2480;SDS011;57396;48.742;9.128;2023-12-20T06:29:59;3.10;;;1.00;;
2480;SDS011;57396;48.742;9.128;2023-12-20T06:32:25;4.70;;;1.10;;
2480;SDS011;57396;48.742;9.128;2023-12-20T06:34:50;1.20;;;0.90;;
2480;SDS011;57396;48.742;9.128;2023-12-20T06:37:15;1.07;;;0.80;;
2480;SDS011;57396;48.742;9.128;2023-12-20T06:39:41;1.93;;;0.90;;
2480;SDS011;57396;48.742;9.128;2023-12-20T06:42:06;1.37;;;0.77;;
2480;SDS011;57396;48.742;9.128;2023-12-20T06:44:32;1.03;;;0.87;;
2480;SDS011;57396;48.742;9.128;2023-12-20T06:46:57;1.83;;;0.93;;
2480;SDS011;57396;48.742;9.128;2023-12-20T06:49:24;1.90;;;0.80;;
2480;SDS011;57396;48.742;9.128;2023-12-20T06:51:49;3.73;;;0.97;;
2480;SDS011;57396;48.742;9.128;2023-12-20T06:54:15;1.27;;;0.90;;
2480;SDS011;57396;48.742;9.128;2023-12-20T06:56:40;3.87;;;1.00;;
2480;SDS011;57396;48.742;9.128;2023-12-20T06:59:06;1.10;;;0.80;;
2480;SDS011;57396;48.742;9.128;2023-12-20T07:01:31;1.40;;;0.80;;
2480;SDS011;57396;48.742;9.128;2023-12-20T07:03:57;3.43;;;0.93;;
2480;SDS011;57396;48.742;9.128;2023-12-20T07:06:22;2.60;;;0.90;;
2480;SDS011;57396;48.742;9.128;2023-12-20T07:08:48;1.10;;;0.80;;
2480;SDS011;57396;48.742;9.128;2023-12-20T07:11:13;1.50;;;0.90;;
2480;SDS011;57396;48.742;9.128;2023-12-20T07:13:39;1.00;;;0.83;;
2480;SDS011;57396;48.742;9.128;2023-12-20T07:16:04;1.30;;;0.90;;
2480;SDS011;57396;48.742;9.128;2023-12-20T07:18:30;0.90;;;0.70;;
2480;SDS011;57396;48.742;9.128;2023-12-20T07:20:55;1.10;;;0.90;;
2480;SDS011;57396;48.742;9.128;2023-12-20T07:23:21;1.00;;;0.70;;
2480;SDS011;57396;48.742;9.128;2023-12-20T07:25:46;1.40;;;0.87;;
2480;SDS011;57396;48.742;9.128;2023-12-20T07:28:12;1.17;;;0.87;;
2480;SDS011;57396;48.742;9.128;2023-12-20T07:30:37;2.20;;;1.37;;
2480;SDS011;57396;48.742;9.128;2023-12-20T07:33:03;1.10;;;0.90;;
2480;SDS011;57396;48.742;9.128;2023-12-20T07:35:29;1.50;;;1.10;;
2480;SDS011;57396;48.742;9.128;2023-12-20T07:37:54;1.37;;;1.27;;
2480;SDS011;57396;48.742;9.128;2023-12-20T07:40:19;1.93;;;1.73;;
2480;SDS011;57396;48.742;9.128;2023-12-20T07:42:45;1.87;;;1.70;;
2480;SDS011;57396;48.742;9.128;2023-12-20T07:45:10;2.80;;;2.23;;
2480;SDS011;57396;48.742;9.128;2023-12-20T07:47:36;2.30;;;1.90;;
2480;SDS011;57396;48.742;9.128;2023-12-20T07:50:02;2.33;;;2.13;;
2480;SDS011;57396;48.742;9.128;2023-12-20T07:52:29;2.83;;;2.03;;
2480;SDS011;57396;48.742;9.128;2023-12-20T07:54:54;3.20;;;2.03;;
2480;SDS011;57396;48.742;9.128;2023-12-20T07:57:20;2.60;;;2.40;;
2480;SDS011;57396;48.742;9.128;2023-12-20T07:59:46;2.50;;;2.30;;
2480;SDS011;57396;48.742;9.128;2023-12-20T08:02:11;11.00;;;2.63;;
2480;SDS011;57396;48.742;9.128;2023-12-20T08:04:37;3.83;;;2.63;;
2480;SDS011;57396;48.742;9.128;2023-12-20T08:07:03;4.53;;;2.60;;
2480;SDS011;57396;48.742;9.128;2023-12-20T08:09:28;2.27;;;2.17;;
2480;SDS011;57396;48.742;9.128;2023-12-20T08:11:54;2.90;;;2.50;;
2480;SDS011;57396;48.742;9.128;2023-12-20T08:14:20;3.87;;;2.97;;
2480;SDS011;57396;48.742;9.128;2023-12-20T08:16:45;2.67;;;2.47;;
2480;SDS011;57396;48.742;9.128;2023-12-20T08:19:11;2.80;;;2.60;;
2480;SDS011;57396;48.742;9.128;2023-12-20T08:21:36;3.93;;;2.70;;
2480;SDS011;57396;48.742;9.128;2023-12-20T08:24:02;3.83;;;2.63;;
2480;SDS011;57396;48.742;9.128;2023-12-20T08:26:27;3.50;;;3.20;;
2480;SDS011;57396;48.742;9.128;2023-12-20T08:28:53;5.13;;;2.70;;
2480;SDS011;57396;48.742;9.128;2023-12-20T08:31:18;3.73;;;2.37;;
2480;SDS011;57396;48.742;9.128;2023-12-20T08:33:44;2.47;;;2.27;;
2480;SDS011;57396;48.742;9.128;2023-12-20T08:36:10;3.17;;;2.70;;
2480;SDS011;57396;48.742;9.128;2023-12-20T08:38:36;2.53;;;2.33;;
2480;SDS011;57396;48.742;9.128;2023-12-20T08:41:02;3.53;;;2.97;;
2480;SDS011;57396;48.742;9.128;2023-12-20T08:43:30;4.90;;;2.77;;
2480;SDS011;57396;48.742;9.128;2023-12-20T08:45:56;5.00;;;3.07;;
2480;SDS011;57396;48.742;9.128;2023-12-20T08:48:21;2.40;;;2.20;;
2480;SDS011;57396;48.742;9.128;2023-12-20T08:50:47;2.93;;;2.40;;
2480;SDS011;57396;48.742;9.128;2023-12-20T08:53:13;2.70;;;2.50;;
2480;SDS011;57396;48.742;9.128;2023-12-20T08:55:40;3.53;;;2.43;;
2480;SDS011;57396;48.742;9.128;2023-12-20T08:58:06;3.00;;;1.90;;
2480;SDS011;57396;48.742;9.128;2023-12-20T09:00:33;2.83;;;2.63;;
2480;SDS011;57396;48.742;9.128;2023-12-20T09:02:59;3.90;;;2.80;;
2480;SDS011;57396;48.742;9.128;2023-12-20T09:05:25;3.90;;;2.80;;
2480;SDS011;57396;48.742;9.128;2023-12-20T09:07:50;3.53;;;2.37;;
2480;SDS011;57396;48.742;9.128;2023-12-20T09:10:15;4.27;;;2.47;;
2480;SDS011;57396;48.742;9.128;2023-12-20T09:12:41;2.53;;;2.30;;
2480;SDS011;57396;48.742;9.128;2023-12-20T09:15:07;3.10;;;1.97;;
2480;SDS011;57396;48.742;9.128;2023-12-20T09:17:33;4.70;;;2.37;;
2480;SDS011;57396;48.742;9.128;2023-12-20T09:19:58;4.17;;;2.20;;
2480;SDS011;57396;48.742;9.128;2023-12-20T09:22:25;3.20;;;1.87;;
2480;SDS011;57396;48.742;9.128;2023-12-20T09:24:50;2.90;;;2.30;;
2480;SDS011;57396;48.742;9.128;2023-12-20T09:27:16;4.27;;;2.10;;
2480;SDS011;57396;48.742;9.128;2023-12-20T09:29:41;3.20;;;1.70;;
2480;SDS011;57396;48.742;9.128;2023-12-20T09:32:07;3.17;;;1.63;;
2480;SDS011;57396;48.742;9.128;2023-12-20T09:34:33;4.93;;;1.80;;
2480;SDS011;57396;48.742;9.128;2023-12-20T09:36:58;5.53;;;1.67;;
2480;SDS011;57396;48.742;9.128;2023-12-20T09:39:24;3.80;;;1.80;;
2480;SDS011;57396;48.742;9.128;2023-12-20T09:42:02;2.30;;;1.53;;
2480;SDS011;57396;48.742;9.128;2023-12-20T09:44:29;3.23;;;1.50;;
2480;SDS011;57396;48.742;9.128;2023-12-20T09:46:55;4.03;;;1.57;;
2480;SDS011;57396;48.742;9.128;2023-12-20T09:49:21;5.37;;;2.50;;
2480;SDS011;57396;48.742;9.128;2023-12-20T09:51:47;4.73;;;1.50;;
2480;SDS011;57396;48.742;9.128;2023-12-20T09:54:16;3.30;;;1.40;;
2480;SDS011;57396;48.742;9.128;2023-12-20T09:56:42;5.20;;;1.40;;
2480;SDS011;57396;48.742;9.128;2023-12-20T09:59:07;2.67;;;1.30;;
2480;SDS011;57396;48.742;9.128;2023-12-20T10:01:33;4.30;;;1.73;;
2480;SDS011;57396;48.742;9.128;2023-12-20T10:03:59;4.77;;;1.40;;
2480;SDS011;57396;48.742;9.128;2023-12-20T10:06:25;5.43;;;2.23;;
2480;SDS011;57396;48.742;9.128;2023-12-20T10:08:51;3.37;;;1.27;;
2480;SDS011;57396;48.742;9.128;2023-12-20T10:11:17;4.17;;;1.30;;
2480;SDS011;57396;48.742;9.128;2023-12-20T10:13:42;5.30;;;1.40;;
2480;SDS011;57396;48.742;9.128;2023-12-20T10:16:08;3.40;;;1.20;;
2480;SDS011;57396;48.742;9.128;2023-12-20T10:18:33;2.50;;;1.30;;
2480;SDS011;57396;48.742;9.128;2023-12-20T10:20:59;9.60;;;1.97;;
2480;SDS011;57396;48.742;9.128;2023-12-20T10:23:25;6.73;;;1.50;;
2480;SDS011;57396;48.742;9.128;2023-12-20T10:26:00;4.47;;;1.80;;
2480;SDS011;57396;48.742;9.128;2023-12-20T10:28:25;6.00;;;1.50;;
2480;SDS011;57396;48.742;9.128;2023-12-20T10:30:54;2.90;;;1.60;;
2480;SDS011;57396;48.742;9.128;2023-12-20T10:33:23;3.90;;;1.43;;
2480;SDS011;57396;48.742;9.128;2023-12-20T10:35:49;5.37;;;1.43;;
2480;SDS011;57396;48.742;9.128;2023-12-20T10:38:15;4.23;;;1.50;;
2480;SDS011;57396;48.742;9.128;2023-12-20T10:40:40;3.87;;;1.60;;
2480;SDS011;57396;48.742;9.128;2023-12-20T10:43:06;3.37;;;1.20;;
2480;SDS011;57396;48.742;9.128;2023-12-20T10:45:33;4.73;;;1.40;;
2480;SDS011;57396;48.742;9.128;2023-12-20T10:47:59;1.80;;;1.10;;
2480;SDS011;57396;48.742;9.128;2023-12-20T10:50:25;4.90;;;1.70;;
2480;SDS011;57396;48.742;9.128;2023-12-20T10:52:52;2.13;;;1.67;;
2480;SDS011;57396;48.742;9.128;2023-12-20T10:55:23;2.30;;;1.40;;
2480;SDS011;57396;48.742;9.128;2023-12-20T10:58:23;2.70;;;1.30;;
2480;SDS011;57396;48.742;9.128;2023-12-20T11:00:41;3.73;;;1.33;;
2480;SDS011;57396;48.742;9.128;2023-12-20T11:03:09;7.10;;;1.40;;
2480;SDS011;57396;48.742;9.128;2023-12-20T11:05:38;7.13;;;2.13;;
2480;SDS011;57396;48.742;9.128;2023-12-20T11:11:01;5.07;;;1.60;;
2480;SDS011;57396;48.742;9.128;2023-12-20T11:13:36;8.33;;;1.63;;
2480;SDS011;57396;48.742;9.128;2023-12-20T11:16:13;3.73;;;1.30;;
2480;SDS011;57396;48.742;9.128;2023-12-20T11:18:40;6.00;;;1.70;;
2480;SDS011;57396;48.742;9.128;2023-12-20T11:21:05;4.40;;;2.07;;
2480;SDS011;57396;48.742;9.128;2023-12-20T11:23:34;3.10;;;1.60;;
2480;SDS011;57396;48.742;9.128;2023-12-20T11:25:59;6.67;;;2.20;;
2480;SDS011;57396;48.742;9.128;2023-12-20T11:28:26;3.57;;;1.80;;
2480;SDS011;57396;48.742;9.128;2023-12-20T11:33:21;5.17;;;1.70;;
2480;SDS011;57396;48.742;9.128;2023-12-20T11:35:47;6.10;;;2.10;;
2480;SDS011;57396;48.742;9.128;2023-12-20T11:38:13;3.40;;;2.00;;
2480;SDS011;57396;48.742;9.128;2023-12-20T11:40:39;3.40;;;2.00;;
2480;SDS011;57396;48.742;9.128;2023-12-20T11:43:07;4.83;;;1.60;;
2480;SDS011;57396;48.742;9.128;2023-12-20T11:45:32;4.70;;;1.80;;
2480;SDS011;57396;48.742;9.128;2023-12-20T11:48:00;3.03;;;1.47;;
2480;SDS011;57396;48.742;9.128;2023-12-20T11:50:27;5.20;;;1.30;;
2480;SDS011;57396;48.742;9.128;2023-12-20T11:52:53;4.70;;;1.93;;
2480;SDS011;57396;48.742;9.128;2023-12-20T11:55:20;2.43;;;1.30;;
2480;SDS011;57396;48.742;9.128;2023-12-20T11:57:46;6.60;;;2.67;;
2480;SDS011;57396;48.742;9.128;2023-12-20T12:00:12;7.80;;;2.43;;
2480;SDS011;57396;48.742;9.128;2023-12-20T12:02:39;4.77;;;1.90;;
2480;SDS011;57396;48.742;9.128;2023-12-20T12:05:04;6.43;;;2.57;;
2480;SDS011;57396;48.742;9.128;2023-12-20T12:07:31;4.80;;;1.90;;
2480;SDS011;57396;48.742;9.128;2023-12-20T12:09:56;4.13;;;2.43;;
2480;SDS011;57396;48.742;9.128;2023-12-20T12:12:22;6.83;;;1.83;;
2480;SDS011;57396;48.742;9.128;2023-12-20T12:14:48;4.03;;;1.63;;
2480;SDS011;57396;48.742;9.128;2023-12-20T12:17:14;5.93;;;1.70;;
2480;SDS011;57396;48.742;9.128;2023-12-20T12:19:40;7.23;;;1.97;;
2480;SDS011;57396;48.742;9.128;2023-12-20T12:22:14;4.43;;;1.50;;
2480;SDS011;57396;48.742;9.128;2023-12-20T12:24:41;2.07;;;1.60;;
2480;SDS011;57396;48.742;9.128;2023-12-20T12:27:07;9.13;;;2.53;;
2480;SDS011;57396;48.742;9.128;2023-12-20T12:29:33;5.90;;;1.63;;
2480;SDS011;57396;48.742;9.128;2023-12-20T12:32:00;4.80;;;1.80;;
2480;SDS011;57396;48.742;9.128;2023-12-20T12:34:29;4.57;;;1.90;;
2480;SDS011;57396;48.742;9.128;2023-12-20T12:36:55;3.90;;;1.73;;
2480;SDS011;57396;48.742;9.128;2023-12-20T12:39:22;6.33;;;2.40;;
2480;SDS011;57396;48.742;9.128;2023-12-20T12:41:49;11.30;;;2.67;;
2480;SDS011;57396;48.742;9.128;2023-12-20T12:44:14;4.43;;;2.10;;
2480;SDS011;57396;48.742;9.128;2023-12-20T12:46:39;5.93;;;1.93;;
2480;SDS011;57396;48.742;9.128;2023-12-20T12:49:05;3.87;;;2.00;;
2480;SDS011;57396;48.742;9.128;2023-12-20T12:51:30;6.97;;;1.60;;
2480;SDS011;57396;48.742;9.128;2023-12-20T12:53:56;14.60;;;2.40;;
2480;SDS011;57396;48.742;9.128;2023-12-20T12:56:22;3.57;;;1.60;;
2480;SDS011;57396;48.742;9.128;2023-12-20T12:58:48;2.40;;;1.33;;
2480;SDS011;57396;48.742;9.128;2023-12-20T13:01:13;8.87;;;1.90;;
2480;SDS011;57396;48.742;9.128;2023-12-20T13:03:39;3.20;;;1.30;;
2480;SDS011;57396;48.742;9.128;2023-12-20T13:06:05;4.30;;;1.53;;
2480;SDS011;57396;48.742;9.128;2023-12-20T13:08:31;6.00;;;1.63;;
2480;SDS011;57396;48.742;9.128;2023-12-20T13:10:56;4.27;;;1.60;;
2480;SDS011;57396;48.742;9.128;2023-12-20T13:13:25;7.43;;;1.80;;
2480;SDS011;57396;48.742;9.128;2023-12-20T13:15:51;4.87;;;2.23;;
2480;SDS011;57396;48.742;9.128;2023-12-20T13:18:19;3.67;;;1.87;;
2480;SDS011;57396;48.742;9.128;2023-12-20T13:20:45;3.53;;;2.07;;
2480;SDS011;57396;48.742;9.128;2023-12-20T13:23:11;8.53;;;1.80;;
2480;SDS011;57396;48.742;9.128;2023-12-20T13:25:36;6.17;;;1.70;;
2480;SDS011;57396;48.742;9.128;2023-12-20T13:28:02;4.73;;;1.70;;
2480;SDS011;57396;48.742;9.128;2023-12-20T13:30:30;2.70;;;1.33;;
2480;SDS011;57396;48.742;9.128;2023-12-20T13:32:56;3.87;;;1.13;;
2480;SDS011;57396;48.742;9.128;2023-12-20T13:35:21;5.13;;;1.50;;
2480;SDS011;57396;48.742;9.128;2023-12-20T13:37:47;4.57;;;1.40;;
2480;SDS011;57396;48.742;9.128;2023-12-20T13:40:13;4.03;;;1.67;;
2480;SDS011;57396;48.742;9.128;2023-12-20T13:42:39;3.50;;;1.20;;
2480;SDS011;57396;48.742;9.128;2023-12-20T13:45:04;4.63;;;1.23;;
2480;SDS011;57396;48.742;9.128;2023-12-20T13:47:31;4.13;;;1.40;;
2480;SDS011;57396;48.742;9.128;2023-12-20T13:49:57;4.20;;;1.50;;
2480;SDS011;57396;48.742;9.128;2023-12-20T13:52:22;7.73;;;1.33;;
2480;SDS011;57396;48.742;9.128;2023-12-20T13:54:48;6.97;;;1.73;;
2480;SDS011;57396;48.742;9.128;2023-12-20T13:57:13;4.33;;;1.33;;
2480;SDS011;57396;48.742;9.128;2023-12-20T13:59:38;4.33;;;1.47;;
2480;SDS011;57396;48.742;9.128;2023-12-20T14:02:04;6.07;;;1.43;;
2480;SDS011;57396;48.742;9.128;2023-12-20T14:04:30;2.33;;;1.50;;
2480;SDS011;57396;48.742;9.128;2023-12-20T14:06:56;4.83;;;1.50;;
2480;SDS011;57396;48.742;9.128;2023-12-20T14:09:21;9.70;;;1.60;;
2480;SDS011;57396;48.742;9.128;2023-12-20T14:11:47;4.47;;;1.70;;
2480;SDS011;57396;48.742;9.128;2023-12-20T14:14:12;4.67;;;1.60;;
2480;SDS011;57396;48.742;9.128;2023-12-20T14:16:38;2.53;;;1.37;;
2480;SDS011;57396;48.742;9.128;2023-12-20T14:19:03;3.47;;;1.53;;
2480;SDS011;57396;48.742;9.128;2023-12-20T14:21:31;4.70;;;1.40;;
2480;SDS011;57396;48.742;9.128;2023-12-20T14:23:57;4.07;;;1.73;;
2480;SDS011;57396;48.742;9.128;2023-12-20T14:26:22;3.63;;;2.00;;
2480;SDS011;57396;48.742;9.128;2023-12-20T14:28:47;3.17;;;1.60;;
2480;SDS011;57396;48.742;9.128;2023-12-20T14:31:13;2.87;;;1.70;;
2480;SDS011;57396;48.742;9.128;2023-12-20T14:33:38;2.97;;;1.43;;
2480;SDS011;57396;48.742;9.128;2023-12-20T14:36:04;10.13;;;1.97;;
2480;SDS011;57396;48.742;9.128;2023-12-20T14:38:33;3.20;;;1.40;;
2480;SDS011;57396;48.742;9.128;2023-12-20T14:40:59;7.43;;;1.90;;
2480;SDS011;57396;48.742;9.128;2023-12-20T14:43:25;4.60;;;2.07;;
2480;SDS011;57396;48.742;9.128;2023-12-20T14:45:51;3.90;;;1.63;;
2480;SDS011;57396;48.742;9.128;2023-12-20T14:48:17;2.30;;;1.47;;
2480;SDS011;57396;48.742;9.128;2023-12-20T14:50:43;3.60;;;1.80;;
2480;SDS011;57396;48.742;9.128;2023-12-20T14:53:09;3.53;;;1.40;;
2480;SDS011;57396;48.742;9.128;2023-12-20T14:55:35;7.00;;;2.00;;
2480;SDS011;57396;48.742;9.128;2023-12-20T14:58:00;4.27;;;1.77;;